Time;durP1;ratioP1;P1;durP2;ratioP2;P2;SDS_P1;SDS_P2;PMS_P1;PMS_P2;Temp;Humidity;BMP_temperature;BMP_pressure;BME280_temperature;BME280_humidity;BME280_pressure;Samples;Min_cycle;Max_cycle;Signal;HPM_P1;HPM_P2
2021/06/30 00:01:42;;;;;;;3.65;2.28;;;;;;;;;;4978716;28;20416;-82
2021/06/30 00:04:09;;;;;;;8.63;3.08;;;;;;;;;;4980878;28;20413;-81
2021/06/30 00:06:35;;;;;;;7.88;4.15;;;;;;;;;;4997442;28;20066;-81
2021/06/30 00:09:02;;;;;;;8.73;3.17;;;;;;;;;;4996800;28;20046;-82
2021/06/30 00:11:28;;;;;;;5.47;2.60;;;;;;;;;;4996257;28;20048;-83
2021/06/30 00:13:55;;;;;;;4.68;2.65;;;;;;;;;;4983105;28;20368;-84
2021/06/30 00:16:23;;;;;;;3.90;2.80;;;;;;;;;;4994349;28;20056;-82
2021/06/30 00:18:49;;;;;;;3.97;2.60;;;;;;;;;;4995758;28;20077;-81
2021/06/30 00:21:19;;;;;;;3.65;2.60;;;;;;;;;;4995835;28;20064;-81
2021/06/30 00:23:46;;;;;;;3.78;1.92;;;;;;;;;;4995901;28;20053;-81
2021/06/30 00:26:12;;;;;;;8.35;4.07;;;;;;;;;;4977923;28;20480;-81
2021/06/30 00:28:39;;;;;;;13.35;4.97;;;;;;;;;;4976230;28;20054;-82
2021/06/30 00:31:06;;;;;;;5.15;2.75;;;;;;;;;;4976818;28;20050;-82
2021/06/30 00:33:33;;;;;;;4.10;2.40;;;;;;;;;;4978200;28;20046;-81
2021/06/30 00:36:00;;;;;;;6.80;3.33;;;;;;;;;;4980719;28;20057;-81
2021/06/30 00:38:26;;;;;;;6.00;3.63;;;;;;;;;;4993866;28;20132;-81
2021/06/30 00:40:53;;;;;;;6.32;2.50;;;;;;;;;;5003059;28;20046;-83
2021/06/30 00:43:19;;;;;;;5.80;3.17;;;;;;;;;;5001595;28;20053;-82
2021/06/30 00:45:48;;;;;;;5.50;3.50;;;;;;;;;;4989136;28;20042;-83
2021/06/30 00:48:14;;;;;;;5.25;3.38;;;;;;;;;;4983998;28;20051;-83
2021/06/30 00:50:42;;;;;;;5.13;3.53;;;;;;;;;;4983696;28;20046;-82
2021/06/30 00:53:09;;;;;;;4.57;3.25;;;;;;;;;;4981645;28;20050;-83
2021/06/30 00:55:38;;;;;;;4.70;3.70;;;;;;;;;;4977675;28;20495;-82
2021/06/30 00:58:04;;;;;;;5.45;3.47;;;;;;;;;;4989421;28;20049;-83
2021/06/30 01:00:31;;;;;;;5.82;4.15;;;;;;;;;;4996271;28;20049;-81
2021/06/30 01:02:57;;;;;;;4.63;3.15;;;;;;;;;;4995782;28;20042;-83
2021/06/30 01:05:24;;;;;;;5.28;3.70;;;;;;;;;;4995380;28;20050;-82
2021/06/30 01:07:52;;;;;;;5.18;3.45;;;;;;;;;;4995711;28;20053;-81
2021/06/30 01:10:18;;;;;;;5.57;3.70;;;;;;;;;;4993884;28;20058;-81
2021/06/30 01:12:45;;;;;;;6.72;3.88;;;;;;;;;;4994240;28;20054;-81
2021/06/30 01:15:12;;;;;;;4.40;3.47;;;;;;;;;;4993304;28;20523;-82
2021/06/30 01:17:39;;;;;;;5.28;2.90;;;;;;;;;;4993563;28;20057;-81
2021/06/30 01:20:07;;;;;;;5.95;3.53;;;;;;;;;;4991490;28;20415;-80
2021/06/30 01:22:34;;;;;;;5.85;3.33;;;;;;;;;;4974701;28;20051;-81
2021/06/30 01:25:02;;;;;;;4.28;2.75;;;;;;;;;;4974808;28;20058;-82
2021/06/30 01:27:31;;;;;;;7.05;2.90;;;;;;;;;;4974587;28;20073;-81
2021/06/30 01:29:58;;;;;;;3.97;2.72;;;;;;;;;;4988303;28;20093;-83
2021/06/30 01:32:25;;;;;;;2.40;1.77;;;;;;;;;;4993772;28;20518;-81
2021/06/30 01:34:52;;;;;;;4.45;2.60;;;;;;;;;;4988112;28;20051;-81
2021/06/30 01:37:18;;;;;;;3.67;2.78;;;;;;;;;;4983485;28;20061;-81
2021/06/30 01:39:45;;;;;;;4.28;2.95;;;;;;;;;;4993722;28;20050;-81
2021/06/30 01:42:12;;;;;;;5.00;3.15;;;;;;;;;;4993811;28;20065;-81
2021/06/30 01:44:39;;;;;;;3.65;2.78;;;;;;;;;;4993008;28;20058;-81
2021/06/30 01:47:05;;;;;;;4.30;3.17;;;;;;;;;;4985082;28;20057;-80
2021/06/30 01:49:32;;;;;;;4.43;3.30;;;;;;;;;;4985164;28;20039;-80
2021/06/30 01:51:58;;;;;;;4.40;3.22;;;;;;;;;;4981902;28;20054;-80
2021/06/30 01:54:25;;;;;;;4.20;2.78;;;;;;;;;;4992551;28;20046;-81
2021/06/30 01:56:51;;;;;;;5.28;3.17;;;;;;;;;;4974884;28;20054;-80
2021/06/30 01:59:19;;;;;;;3.60;2.30;;;;;;;;;;4973720;28;20051;-80
2021/06/30 02:01:45;;;;;;;3.63;2.60;;;;;;;;;;4973504;28;20057;-80
2021/06/30 02:04:12;;;;;;;3.65;1.80;;;;;;;;;;4981553;28;20043;-80
2021/06/30 02:06:42;;;;;;;3.63;1.98;;;;;;;;;;4986397;28;20061;-80
2021/06/30 02:09:11;;;;;;;4.00;1.80;;;;;;;;;;4991797;28;20055;-80
2021/06/30 02:11:38;;;;;;;4.47;1.83;;;;;;;;;;4992988;28;20054;-80
2021/06/30 02:14:06;;;;;;;3.42;1.60;;;;;;;;;;4992998;28;20070;-80
2021/06/30 02:16:34;;;;;;;2.40;1.40;;;;;;;;;;4990280;28;20403;-80
2021/06/30 02:19:04;;;;;;;3.83;1.85;;;;;;;;;;4987696;28;20047;-80
2021/06/30 02:21:30;;;;;;;3.28;1.55;;;;;;;;;;4989818;28;20073;-80
2021/06/30 02:23:57;;;;;;;1.98;1.40;;;;;;;;;;4991970;28;20050;-81
2021/06/30 02:26:23;;;;;;;2.63;1.60;;;;;;;;;;4978963;28;20062;-81
2021/06/30 02:28:50;;;;;;;1.88;1.20;;;;;;;;;;4972623;28;20058;-81
2021/06/30 02:31:17;;;;;;;3.72;1.48;;;;;;;;;;4980572;28;20039;-81
2021/06/30 02:33:45;;;;;;;2.70;1.15;;;;;;;;;;4975302;28;20077;-81
2021/06/30 02:36:12;;;;;;;1.92;1.20;;;;;;;;;;4982661;28;20046;-82
2021/06/30 02:38:38;;;;;;;1.17;0.80;;;;;;;;;;4986962;28;20072;-81
2021/06/30 02:41:05;;;;;;;1.63;1.15;;;;;;;;;;4976240;28;20050;-81
2021/06/30 02:43:31;;;;;;;0.85;0.75;;;;;;;;;;4981488;28;20051;-81
2021/06/30 02:45:58;;;;;;;2.88;0.90;;;;;;;;;;4992487;28;20053;-81
2021/06/30 02:48:25;;;;;;;2.38;0.88;;;;;;;;;;4985281;28;20050;-81
2021/06/30 02:50:53;;;;;;;3.05;0.85;;;;;;;;;;4985418;28;20054;-82
2021/06/30 02:53:20;;;;;;;2.00;0.80;;;;;;;;;;4983403;28;20046;-81
2021/06/30 02:55:46;;;;;;;1.10;0.57;;;;;;;;;;4987640;28;20050;-81
2021/06/30 02:58:13;;;;;;;2.25;1.15;;;;;;;;;;4984117;28;20410;-81
2021/06/30 03:00:39;;;;;;;1.02;0.70;;;;;;;;;;4984120;28;20050;-81
2021/06/30 03:03:06;;;;;;;2.20;0.82;;;;;;;;;;4986119;28;20054;-81
2021/06/30 03:05:32;;;;;;;1.65;0.82;;;;;;;;;;4981608;28;20555;-81
2021/06/30 03:08:00;;;;;;;0.73;0.60;;;;;;;;;;4992295;28;20042;-80
2021/06/30 03:10:28;;;;;;;1.65;0.73;;;;;;;;;;4982605;28;20047;-81
2021/06/30 03:12:54;;;;;;;1.33;0.60;;;;;;;;;;4978115;28;20484;-81
2021/06/30 03:15:21;;;;;;;0.38;0.38;;;;;;;;;;4981355;28;20509;-80
2021/06/30 03:17:47;;;;;;;0.98;0.43;;;;;;;;;;4984486;28;20070;-80
2021/06/30 03:20:15;;;;;;;0.98;0.57;;;;;;;;;;4939037;28;1072957;-81
2021/06/30 03:22:43;;;;;;;1.30;0.50;;;;;;;;;;4983559;28;20126;-81
2021/06/30 03:25:13;;;;;;;1.45;0.43;;;;;;;;;;4991104;28;20050;-81
2021/06/30 03:27:40;;;;;;;1.38;0.40;;;;;;;;;;4988415;28;20050;-82
2021/06/30 03:30:09;;;;;;;0.88;0.50;;;;;;;;;;4996581;28;20046;-81
2021/06/30 03:32:36;;;;;;;1.55;0.50;;;;;;;;;;4997353;28;20415;-81
2021/06/30 03:35:02;;;;;;;0.80;0.40;;;;;;;;;;4993744;28;20039;-80
2021/06/30 03:37:29;;;;;;;0.65;0.20;;;;;;;;;;4990066;28;20050;-81
2021/06/30 03:39:55;;;;;;;0.65;0.30;;;;;;;;;;4996993;28;20053;-83
2021/06/30 03:42:23;;;;;;;0.32;0.20;;;;;;;;;;4990166;28;20407;-82
2021/06/30 03:44:50;;;;;;;2.15;0.43;;;;;;;;;;4996396;28;20054;-81
2021/06/30 03:47:16;;;;;;;0.25;0.10;;;;;;;;;;4994025;28;20410;-81
2021/06/30 03:49:43;;;;;;;0.68;0.20;;;;;;;;;;4978215;28;20055;-81
2021/06/30 03:52:09;;;;;;;1.08;0.38;;;;;;;;;;4997335;28;20046;-81
2021/06/30 03:54:36;;;;;;;0.40;0.30;;;;;;;;;;4997099;28;20483;-81
2021/06/30 03:57:02;;;;;;;2.58;0.38;;;;;;;;;;4986754;28;20050;-82
2021/06/30 03:59:30;;;;;;;0.57;0.30;;;;;;;;;;4986100;28;20042;-81
2021/06/30 04:01:58;;;;;;;1.65;0.20;;;;;;;;;;4996291;28;20458;-82
2021/06/30 04:04:25;;;;;;;0.55;0.20;;;;;;;;;;4989320;28;20070;-81
2021/06/30 04:06:51;;;;;;;3.15;0.40;;;;;;;;;;4983819;28;20130;-82
2021/06/30 04:09:18;;;;;;;1.20;0.50;;;;;;;;;;4981002;28;20053;-80
2021/06/30 04:11:44;;;;;;;0.90;0.30;;;;;;;;;;4993461;28;20050;-81
2021/06/30 04:14:11;;;;;;;1.70;0.30;;;;;;;;;;4991040;28;20065;-82
2021/06/30 04:16:38;;;;;;;0.20;0.20;;;;;;;;;;4978412;28;20058;-81
2021/06/30 04:19:05;;;;;;;1.25;0.30;;;;;;;;;;4990413;28;20038;-82
2021/06/30 04:21:32;;;;;;;0.17;0.17;;;;;;;;;;4997404;28;20050;-82
2021/06/30 04:23:58;;;;;;;1.65;0.50;;;;;;;;;;4981566;28;20057;-81
2021/06/30 04:26:25;;;;;;;2.80;0.40;;;;;;;;;;4987862;28;20054;-81
2021/06/30 04:28:51;;;;;;;0.65;0.30;;;;;;;;;;4982844;28;20046;-83
2021/06/30 04:31:18;;;;;;;1.00;0.20;;;;;;;;;;4981840;28;20054;-85
2021/06/30 04:33:46;;;;;;;1.08;0.40;;;;;;;;;;4979651;28;20043;-82
2021/06/30 04:36:12;;;;;;;1.77;0.55;;;;;;;;;;4978991;28;20050;-81
2021/06/30 04:38:39;;;;;;;2.90;0.70;;;;;;;;;;4979395;28;20058;-83
2021/06/30 04:41:05;;;;;;;1.42;0.38;;;;;;;;;;4979659;28;20050;-82
2021/06/30 04:43:32;;;;;;;1.38;0.47;;;;;;;;;;4979087;28;20413;-83
2021/06/30 04:45:58;;;;;;;0.32;0.22;;;;;;;;;;4993378;28;20085;-81
2021/06/30 04:48:25;;;;;;;1.77;0.50;;;;;;;;;;5000063;28;20113;-83
2021/06/30 04:50:53;;;;;;;1.63;0.45;;;;;;;;;;4999006;28;20080;-83
2021/06/30 04:53:20;;;;;;;0.45;0.20;;;;;;;;;;4999310;28;20046;-83
2021/06/30 04:55:47;;;;;;;1.33;0.43;;;;;;;;;;4992555;28;20047;-83
2021/06/30 04:58:13;;;;;;;1.15;0.28;;;;;;;;;;4991266;28;20050;-82
2021/06/30 05:00:40;;;;;;;0.90;0.25;;;;;;;;;;5000806;28;20053;-82
2021/06/30 05:03:06;;;;;;;2.08;0.20;;;;;;;;;;5000825;28;20050;-82
2021/06/30 05:05:33;;;;;;;0.25;0.20;;;;;;;;;;4987033;28;20069;-85
2021/06/30 05:08:02;;;;;;;0.30;0.20;;;;;;;;;;4997588;28;20050;-84
2021/06/30 05:10:28;;;;;;;3.13;0.20;;;;;;;;;;5000600;28;20061;-83
2021/06/30 05:12:55;;;;;;;0.70;0.10;;;;;;;;;;5001118;28;20495;-84
2021/06/30 05:15:22;;;;;;;1.27;0.30;;;;;;;;;;5000458;28;20043;-84
2021/06/30 05:17:49;;;;;;;0.73;0.32;;;;;;;;;;5001212;28;20593;-84
2021/06/30 05:20:16;;;;;;;0.98;0.32;;;;;;;;;;5002337;28;20058;-83
2021/06/30 05:22:43;;;;;;;1.00;0.32;;;;;;;;;;5001910;28;20046;-84
2021/06/30 05:25:12;;;;;;;0.63;0.20;;;;;;;;;;4990135;28;20047;-84
2021/06/30 05:27:39;;;;;;;2.72;0.75;;;;;;;;;;4979600;28;20059;-83
2021/06/30 05:30:07;;;;;;;0.70;0.30;;;;;;;;;;4973624;28;20047;-82
2021/06/30 05:32:33;;;;;;;1.10;0.30;;;;;;;;;;4974260;28;20050;-82
2021/06/30 05:35:00;;;;;;;0.68;0.20;;;;;;;;;;4974480;28;20047;-82
2021/06/30 05:37:26;;;;;;;1.85;0.30;;;;;;;;;;4993363;28;20042;-82
2021/06/30 05:39:52;;;;;;;3.50;1.13;;;;;;;;;;4996191;28;20506;-83
2021/06/30 05:42:20;;;;;;;0.85;0.25;;;;;;;;;;4993866;28;20057;-83
2021/06/30 05:44:47;;;;;;;0.70;0.40;;;;;;;;;;4994017;28;20042;-82
2021/06/30 05:47:13;;;;;;;0.57;0.40;;;;;;;;;;4976870;28;20055;-83
2021/06/30 05:49:40;;;;;;;2.65;0.35;;;;;;;;;;4974654;28;20047;-83
2021/06/30 05:52:07;;;;;;;1.33;0.50;;;;;;;;;;4974236;28;20043;-83
2021/06/30 05:54:33;;;;;;;1.55;0.30;;;;;;;;;;4981046;28;20050;-83
2021/06/30 05:57:00;;;;;;;0.60;0.38;;;;;;;;;;4979758;28;20043;-83
2021/06/30 05:59:27;;;;;;;1.20;0.40;;;;;;;;;;4993360;28;20045;-82
2021/06/30 06:01:54;;;;;;;2.45;0.40;;;;;;;;;;4993229;28;20047;-84
2021/06/30 06:04:21;;;;;;;3.25;0.60;;;;;;;;;;4993762;28;20046;-83
2021/06/30 06:06:47;;;;;;;1.38;0.30;;;;;;;;;;4992967;28;20356;-84
2021/06/30 06:09:14;;;;;;;1.75;0.40;;;;;;;;;;4993570;28;20051;-83
2021/06/30 06:11:40;;;;;;;0.88;0.35;;;;;;;;;;4995885;28;20487;-83
2021/06/30 06:14:07;;;;;;;10.95;1.23;;;;;;;;;;4997153;28;20394;-83
2021/06/30 06:16:35;;;;;;;2.22;0.60;;;;;;;;;;4996090;28;20062;-86
2021/06/30 06:19:02;;;;;;;1.40;0.30;;;;;;;;;;4997078;28;20053;-82
2021/06/30 06:21:29;;;;;;;0.85;0.15;;;;;;;;;;4997279;28;20388;-82
2021/06/30 06:23:55;;;;;;;2.55;0.55;;;;;;;;;;4996775;28;20046;-82
2021/06/30 06:26:21;;;;;;;1.30;0.38;;;;;;;;;;4994319;28;20487;-83
2021/06/30 06:28:48;;;;;;;0.75;0.40;;;;;;;;;;4997081;28;20046;-83
2021/06/30 06:31:16;;;;;;;0.38;0.17;;;;;;;;;;4997325;28;20068;-82
2021/06/30 06:33:44;;;;;;;0.98;0.32;;;;;;;;;;4996972;28;20132;-83
2021/06/30 06:36:11;;;;;;;0.73;0.40;;;;;;;;;;4989624;28;20054;-83
2021/06/30 06:38:38;;;;;;;0.90;0.30;;;;;;;;;;4977752;28;20123;-83
2021/06/30 06:41:05;;;;;;;0.52;0.30;;;;;;;;;;4977494;28;20047;-83
2021/06/30 06:43:33;;;;;;;1.98;0.40;;;;;;;;;;4977446;28;20042;-83
2021/06/30 06:45:59;;;;;;;0.85;0.30;;;;;;;;;;4977536;28;20049;-83
2021/06/30 06:48:26;;;;;;;0.85;0.40;;;;;;;;;;4977415;28;20058;-83
2021/06/30 06:50:53;;;;;;;2.67;0.32;;;;;;;;;;4977399;28;20050;-83
2021/06/30 06:53:20;;;;;;;1.88;0.50;;;;;;;;;;4977073;28;20604;-83
2021/06/30 06:55:47;;;;;;;1.10;0.28;;;;;;;;;;4980714;28;20059;-85
2021/06/30 06:58:14;;;;;;;0.30;0.22;;;;;;;;;;4996581;28;20133;-82
2021/06/30 07:00:40;;;;;;;0.22;0.22;;;;;;;;;;4992835;28;20055;-81
2021/06/30 07:03:07;;;;;;;0.40;0.30;;;;;;;;;;4976564;28;20377;-84
2021/06/30 07:05:33;;;;;;;0.40;0.30;;;;;;;;;;4978792;28;20047;-83
2021/06/30 07:08:01;;;;;;;0.73;0.30;;;;;;;;;;4996042;28;20058;-83
2021/06/30 07:10:27;;;;;;;0.60;0.30;;;;;;;;;;4996300;28;20046;-83
2021/06/30 07:12:54;;;;;;;2.40;0.22;;;;;;;;;;4995607;28;20042;-83
2021/06/30 07:15:20;;;;;;;2.08;0.30;;;;;;;;;;4996241;28;20395;-83
2021/06/30 07:17:47;;;;;;;0.30;0.20;;;;;;;;;;4994846;28;20495;-83
2021/06/30 07:20:14;;;;;;;1.58;0.30;;;;;;;;;;4995850;28;20046;-83
2021/06/30 07:22:40;;;;;;;2.22;0.52;;;;;;;;;;4989302;28;20080;-83
2021/06/30 07:25:09;;;;;;;2.17;0.40;;;;;;;;;;4976177;28;20057;-82
2021/06/30 07:27:35;;;;;;;1.30;0.30;;;;;;;;;;4976304;28;20055;-82
2021/06/30 07:30:02;;;;;;;0.25;0.20;;;;;;;;;;4976691;28;20057;-83
2021/06/30 07:32:29;;;;;;;1.00;0.32;;;;;;;;;;4976433;28;20047;-80
2021/06/30 07:34:55;;;;;;;0.95;0.45;;;;;;;;;;4976518;28;20051;-82
2021/06/30 07:37:22;;;;;;;4.20;0.30;;;;;;;;;;4976270;28;20054;-83
2021/06/30 07:39:48;;;;;;;0.30;0.15;;;;;;;;;;4976517;28;20061;-82
2021/06/30 07:42:16;;;;;;;1.98;0.20;;;;;;;;;;4976299;28;20051;-81
2021/06/30 07:44:45;;;;;;;0.17;0.15;;;;;;;;;;4976183;28;20067;-82
2021/06/30 07:47:11;;;;;;;0.90;0.38;;;;;;;;;;4976053;28;20051;-82
2021/06/30 07:49:38;;;;;;;0.38;0.20;;;;;;;;;;4978407;28;20047;-83
2021/06/30 07:52:05;;;;;;;1.63;0.40;;;;;;;;;;4990907;28;20047;-82
2021/06/30 07:54:33;;;;;;;3.53;0.82;;;;;;;;;;4975821;28;20459;-83
2021/06/30 07:56:59;;;;;;;1.10;0.30;;;;;;;;;;4975714;28;20058;-82
2021/06/30 07:59:27;;;;;;;0.98;0.25;;;;;;;;;;4976400;28;20050;-83
2021/06/30 08:01:54;;;;;;;0.45;0.22;;;;;;;;;;4975700;28;20129;-83
2021/06/30 08:04:20;;;;;;;1.52;0.25;;;;;;;;;;4975635;28;20050;-82
2021/06/30 08:06:47;;;;;;;0.98;0.20;;;;;;;;;;4975655;28;20051;-83
2021/06/30 08:09:14;;;;;;;0.35;0.30;;;;;;;;;;4976272;28;20055;-83
2021/06/30 08:11:40;;;;;;;0.28;0.20;;;;;;;;;;4975566;28;20050;-83
2021/06/30 08:14:07;;;;;;;1.08;0.20;;;;;;;;;;4975353;28;20098;-83
2021/06/30 08:16:35;;;;;;;2.10;0.30;;;;;;;;;;4975782;28;20051;-82
2021/06/30 08:19:01;;;;;;;0.30;0.30;;;;;;;;;;4976181;28;20047;-83
2021/06/30 08:21:28;;;;;;;0.93;0.28;;;;;;;;;;4984236;28;20057;-82
2021/06/30 08:23:54;;;;;;;1.13;0.28;;;;;;;;;;4990971;28;20042;-82
2021/06/30 08:26:21;;;;;;;0.73;0.32;;;;;;;;;;4989902;28;20058;-83
2021/06/30 08:28:48;;;;;;;0.32;0.20;;;;;;;;;;4994714;28;20486;-83
2021/06/30 08:31:15;;;;;;;1.65;0.20;;;;;;;;;;4995120;28;20078;-82
2021/06/30 08:33:43;;;;;;;0.65;0.22;;;;;;;;;;4994359;28;20058;-83
2021/06/30 08:36:09;;;;;;;1.27;0.30;;;;;;;;;;4995481;28;20054;-83
2021/06/30 08:38:35;;;;;;;0.45;0.20;;;;;;;;;;4994446;28;20060;-82
2021/06/30 08:41:03;;;;;;;0.60;0.20;;;;;;;;;;4994836;28;20053;-82
2021/06/30 08:43:29;;;;;;;1.00;0.20;;;;;;;;;;4994831;28;20065;-82
2021/06/30 08:45:56;;;;;;;1.38;0.30;;;;;;;;;;4994785;28;20047;-82
2021/06/30 08:48:26;;;;;;;0.20;0.10;;;;;;;;;;4992440;28;20491;-82
2021/06/30 08:50:55;;;;;;;0.85;0.30;;;;;;;;;;4994688;28;20396;-83
2021/06/30 08:53:22;;;;;;;0.22;0.20;;;;;;;;;;4977904;28;20050;-83
2021/06/30 08:55:49;;;;;;;0.73;0.38;;;;;;;;;;4980573;28;20049;-82
2021/06/30 08:58:16;;;;;;;0.63;0.30;;;;;;;;;;4994039;28;20050;-81
2021/06/30 09:00:44;;;;;;;0.25;0.20;;;;;;;;;;4985978;28;20393;-81
2021/06/30 09:03:15;;;;;;;0.40;0.20;;;;;;;;;;4986544;28;20049;-81
2021/06/30 09:08:59;;;;;;;0.85;0.30;;;;;;;;;;4967363;28;20159;-82
2021/06/30 09:11:28;;;;;;;0.55;0.55;;;;;;;;;;4991838;28;20046;-81
2021/06/30 09:14:12;;;;;;;0.75;0.32;;;;;;;;;;4982337;28;20566;-81
2021/06/30 09:16:58;;;;;;;0.43;0.20;;;;;;;;;;4980102;28;20050;-81
2021/06/30 09:19:49;;;;;;;0.28;0.25;;;;;;;;;;4995146;28;20042;-81
2021/06/30 09:22:16;;;;;;;2.92;0.50;;;;;;;;;;4986063;28;20053;-83
2021/06/30 09:24:44;;;;;;;4.75;0.60;;;;;;;;;;4974427;28;20514;-81
2021/06/30 09:27:13;;;;;;;3.67;0.40;;;;;;;;;;4983952;28;20050;-81
2021/06/30 09:29:41;;;;;;;0.43;0.32;;;;;;;;;;4994336;28;20050;-81
2021/06/30 09:32:10;;;;;;;3.08;0.43;;;;;;;;;;4994236;28;20042;-81
2021/06/30 09:34:36;;;;;;;0.38;0.38;;;;;;;;;;4990181;28;20046;-81
2021/06/30 09:37:05;;;;;;;3.25;0.32;;;;;;;;;;4993305;28;20046;-81
2021/06/30 09:39:36;;;;;;;1.50;0.35;;;;;;;;;;4993777;28;20113;-82
2021/06/30 09:42:04;;;;;;;0.88;0.68;;;;;;;;;;4994692;28;20053;-81
2021/06/30 09:44:31;;;;;;;0.28;0.20;;;;;;;;;;4993935;28;20515;-84
2021/06/30 09:46:58;;;;;;;0.40;0.25;;;;;;;;;;4994015;28;20054;-84
2021/06/30 09:49:25;;;;;;;1.23;0.30;;;;;;;;;;4977363;28;20051;-81
2021/06/30 09:52:05;;;;;;;0.32;0.20;;;;;;;;;;4978737;28;20110;-82
2021/06/30 09:54:32;;;;;;;0.70;0.30;;;;;;;;;;4989200;28;20510;-82
2021/06/30 09:57:02;;;;;;;0.20;0.20;;;;;;;;;;4995126;28;20047;-80
2021/06/30 09:59:35;;;;;;;0.50;0.20;;;;;;;;;;4995464;28;20050;-82
2021/06/30 10:02:03;;;;;;;0.20;0.10;;;;;;;;;;4979322;28;20061;-82
2021/06/30 10:04:32;;;;;;;0.10;0.10;;;;;;;;;;4980345;28;20043;-84
2021/06/30 10:07:11;;;;;;;0.47;0.20;;;;;;;;;;4990408;28;20403;-82
2021/06/30 10:09:38;;;;;;;3.35;0.35;;;;;;;;;;4992051;28;20101;-83
2021/06/30 10:12:10;;;;;;;0.35;0.20;;;;;;;;;;4994867;28;20483;-83
2021/06/30 10:14:39;;;;;;;0.10;0.10;;;;;;;;;;4980657;28;20503;-84
2021/06/30 10:17:07;;;;;;;0.20;0.20;;;;;;;;;;4975328;28;20061;-82
2021/06/30 10:19:37;;;;;;;0.30;0.30;;;;;;;;;;4988465;28;20047;-84
2021/06/30 10:22:05;;;;;;;0.43;0.10;;;;;;;;;;4994748;28;20046;-81
2021/06/30 10:24:31;;;;;;;0.47;0.38;;;;;;;;;;4994539;28;20046;-81
2021/06/30 10:27:00;;;;;;;0.20;0.20;;;;;;;;;;4994837;28;20057;-83
2021/06/30 10:29:28;;;;;;;0.10;0.10;;;;;;;;;;4983025;28;20055;-82
2021/06/30 10:32:01;;;;;;;0.30;0.30;;;;;;;;;;4992744;28;20126;-82
2021/06/30 10:34:35;;;;;;;0.10;0.10;;;;;;;;;;4994223;28;20049;-83
2021/06/30 10:37:03;;;;;;;0.20;0.20;;;;;;;;;;4994205;28;20055;-81
2021/06/30 10:39:51;;;;;;;1.50;0.28;;;;;;;;;;4982517;28;20051;-83
2021/06/30 10:42:28;;;;;;;0.55;0.20;;;;;;;;;;4970605;28;20055;-82
2021/06/30 10:44:59;;;;;;;0.30;0.20;;;;;;;;;;4975927;28;20054;-85
2021/06/30 10:47:50;;;;;;;0.38;0.10;;;;;;;;;;4975715;28;20047;-82
2021/06/30 10:50:38;;;;;;;2.85;0.30;;;;;;;;;;4971762;28;20151;-82
2021/06/30 10:53:42;;;;;;;0.52;0.20;;;;;;;;;;4978632;28;20043;-81
2021/06/30 10:56:11;;;;;;;1.45;0.20;;;;;;;;;;4976207;28;20055;-81
2021/06/30 10:58:38;;;;;;;0.60;0.20;;;;;;;;;;4983445;28;20042;-82
2021/06/30 11:01:15;;;;;;;0.30;0.10;;;;;;;;;;4995694;28;20413;-81
2021/06/30 11:03:53;;;;;;;0.10;0.10;;;;;;;;;;4999848;28;20113;-82
2021/06/30 11:06:37;;;;;;;0.10;0.10;;;;;;;;;;4999787;28;20376;-83
2021/06/30 11:09:07;;;;;;;0.30;0.30;;;;;;;;;;4995273;28;20156;-82
2021/06/30 11:11:59;;;;;;;1.50;0.20;;;;;;;;;;4979692;28;20502;-85
2021/06/30 11:14:43;;;;;;;0.22;0.22;;;;;;;;;;4965184;28;20047;-87
2021/06/30 11:17:10;;;;;;;0.30;0.30;;;;;;;;;;4996292;28;20061;-84
2021/06/30 11:19:49;;;;;;;0.55;0.17;;;;;;;;;;4998635;28;20053;-83
2021/06/30 11:22:26;;;;;;;0.17;0.17;;;;;;;;;;4999195;28;20046;-81
2021/06/30 11:24:53;;;;;;;0.75;0.20;;;;;;;;;;4999519;28;20055;-81
2021/06/30 11:27:46;;;;;;;0.10;0.10;;;;;;;;;;4983987;28;20046;-81
2021/06/30 11:30:37;;;;;;;1.17;0.20;;;;;;;;;;4993393;28;20050;-81
2021/06/30 11:33:05;;;;;;;0.38;0.28;;;;;;;;;;4989000;28;20046;-83
2021/06/30 11:35:36;;;;;;;0.20;0.20;;;;;;;;;;4999293;28;20046;-81
2021/06/30 11:38:11;;;;;;;2.17;0.30;;;;;;;;;;4999366;28;20054;-81
2021/06/30 11:40:40;;;;;;;0.65;0.43;;;;;;;;;;4984712;28;20067;-81
2021/06/30 11:43:12;;;;;;;0.30;0.30;;;;;;;;;;4982447;28;20454;-82
2021/06/30 11:45:38;;;;;;;0.80;0.15;;;;;;;;;;4996498;28;20050;-84
2021/06/30 11:48:08;;;;;;;1.38;0.30;;;;;;;;;;4978383;28;20057;-81
2021/06/30 11:50:49;;;;;;;1.23;0.30;;;;;;;;;;4995264;28;20050;-81
2021/06/30 11:53:16;;;;;;;2.30;0.60;;;;;;;;;;4998298;28;20467;-80
2021/06/30 11:55:44;;;;;;;1.25;0.30;;;;;;;;;;4998165;28;20145;-81
2021/06/30 11:58:10;;;;;;;0.80;0.30;;;;;;;;;;4998261;28;20042;-81
2021/06/30 12:00:41;;;;;;;0.77;0.30;;;;;;;;;;4997496;28;20057;-81
2021/06/30 12:03:08;;;;;;;1.83;0.30;;;;;;;;;;4998468;28;20055;-80
2021/06/30 12:05:38;;;;;;;0.73;0.40;;;;;;;;;;4999223;28;20519;-84
2021/06/30 12:08:07;;;;;;;1.95;0.20;;;;;;;;;;4998724;28;20511;-83
2021/06/30 12:10:34;;;;;;;0.60;0.30;;;;;;;;;;4990615;28;20046;-81
2021/06/30 12:13:01;;;;;;;0.45;0.32;;;;;;;;;;4993210;28;20051;-80
2021/06/30 12:15:28;;;;;;;0.52;0.30;;;;;;;;;;4990760;28;20049;-84
2021/06/30 12:17:57;;;;;;;0.30;0.20;;;;;;;;;;4991011;28;20511;-81
2021/06/30 12:20:26;;;;;;;0.68;0.20;;;;;;;;;;4998830;28;20065;-83
2021/06/30 12:22:54;;;;;;;3.45;0.60;;;;;;;;;;4996300;28;20054;-83
2021/06/30 12:25:23;;;;;;;0.30;0.30;;;;;;;;;;4998777;28;20298;-80
2021/06/30 12:27:50;;;;;;;0.55;0.30;;;;;;;;;;4995395;28;20055;-83
2021/06/30 12:30:18;;;;;;;0.50;0.30;;;;;;;;;;4982389;28;20596;-81
2021/06/30 12:32:47;;;;;;;0.20;0.10;;;;;;;;;;4999498;28;20069;-84
2021/06/30 12:35:16;;;;;;;0.47;0.20;;;;;;;;;;4996574;28;20058;-83
2021/06/30 12:37:43;;;;;;;0.50;0.20;;;;;;;;;;4999413;28;20561;-81
2021/06/30 12:40:13;;;;;;;0.45;0.20;;;;;;;;;;4984527;28;20047;-82
2021/06/30 12:42:49;;;;;;;0.38;0.30;;;;;;;;;;4979653;28;20624;-84
2021/06/30 12:45:17;;;;;;;0.25;0.20;;;;;;;;;;4980113;28;20054;-81
2021/06/30 12:47:57;;;;;;;0.30;0.30;;;;;;;;;;4980733;28;20051;-83
2021/06/30 12:50:35;;;;;;;0.90;0.20;;;;;;;;;;4997842;28;20119;-85
2021/06/30 12:53:04;;;;;;;0.32;0.30;;;;;;;;;;5000595;28;20053;-84
2021/06/30 12:55:49;;;;;;;0.82;0.17;;;;;;;;;;4994119;28;20054;-80
2021/06/30 12:58:16;;;;;;;0.13;0.13;;;;;;;;;;4990729;28;20046;-83
2021/06/30 13:00:54;;;;;;;1.55;0.45;;;;;;;;;;4996738;28;20050;-80
2021/06/30 13:03:21;;;;;;;0.20;0.20;;;;;;;;;;4985188;28;20042;-81
2021/06/30 13:05:49;;;;;;;0.38;0.22;;;;;;;;;;4991706;28;20042;-83
2021/06/30 13:08:33;;;;;;;0.13;0.10;;;;;;;;;;5001324;28;20046;-82
2021/06/30 13:11:05;;;;;;;4.90;0.20;;;;;;;;;;4990414;28;20529;-81
2021/06/30 13:13:32;;;;;;;0.10;0.10;;;;;;;;;;4982766;28;20062;-82
2021/06/30 13:16:12;;;;;;;0.98;0.40;;;;;;;;;;4982124;28;20050;-82
2021/06/30 13:18:43;;;;;;;0.10;0.10;;;;;;;;;;4981534;28;20468;-82
2021/06/30 13:21:10;;;;;;;0.10;0.10;;;;;;;;;;4982102;28;20051;-81
2021/06/30 13:23:40;;;;;;;0.13;0.03;;;;;;;;;;4993793;28;20050;-82
2021/06/30 13:26:18;;;;;;;0.82;0.25;;;;;;;;;;4998737;28;20049;-83
2021/06/30 13:29:07;;;;;;;0.28;0.17;;;;;;;;;;4996338;28;20050;-81
2021/06/30 13:34:20;;;;;;;0.50;0.15;;;;;;;;;;4991005;28;20080;-81
2021/06/30 13:36:47;;;;;;;0.57;0.20;;;;;;;;;;4994716;28;20058;-81
2021/06/30 13:39:14;;;;;;;0.10;0.10;;;;;;;;;;4976288;28;20430;-81
2021/06/30 13:41:41;;;;;;;0.80;0.20;;;;;;;;;;4974921;28;20058;-81
2021/06/30 13:44:08;;;;;;;1.13;0.50;;;;;;;;;;4974850;28;20798;-80
2021/06/30 13:46:34;;;;;;;1.73;0.30;;;;;;;;;;4975215;28;20054;-81
2021/06/30 13:49:01;;;;;;;0.82;0.40;;;;;;;;;;4986835;28;20058;-81
2021/06/30 13:51:27;;;;;;;5.05;0.40;;;;;;;;;;4985430;28;20049;-80
2021/06/30 13:53:54;;;;;;;0.70;0.30;;;;;;;;;;4978368;28;20062;-80
2021/06/30 13:56:21;;;;;;;1.15;0.50;;;;;;;;;;4992726;28;20057;-80
2021/06/30 13:58:50;;;;;;;0.32;0.30;;;;;;;;;;4993444;28;20046;-80
2021/06/30 14:01:20;;;;;;;1.15;0.30;;;;;;;;;;4974503;28;20047;-80
2021/06/30 14:03:46;;;;;;;5.55;0.75;;;;;;;;;;4974564;28;20046;-81
2021/06/30 14:06:13;;;;;;;1.08;0.40;;;;;;;;;;4974455;28;20043;-81
2021/06/30 14:08:39;;;;;;;2.45;0.20;;;;;;;;;;4978371;28;20055;-81
2021/06/30 14:11:07;;;;;;;0.73;0.20;;;;;;;;;;4983027;28;20472;-80
2021/06/30 14:13:34;;;;;;;0.65;0.20;;;;;;;;;;4992123;28;20057;-83
2021/06/30 14:16:04;;;;;;;0.28;0.20;;;;;;;;;;4989500;28;20514;-81
2021/06/30 14:18:31;;;;;;;0.17;0.17;;;;;;;;;;4981620;28;20046;-81
2021/06/30 14:20:57;;;;;;;0.20;0.17;;;;;;;;;;4974005;28;20070;-81
2021/06/30 14:23:25;;;;;;;0.20;0.20;;;;;;;;;;4974357;28;20054;-82
2021/06/30 14:25:53;;;;;;;0.88;0.30;;;;;;;;;;4973601;28;20053;-81
2021/06/30 14:28:20;;;;;;;0.45;0.20;;;;;;;;;;4973459;28;20042;-82
2021/06/30 14:30:51;;;;;;;1.48;0.32;;;;;;;;;;4974426;28;20715;-81
2021/06/30 14:33:20;;;;;;;0.28;0.10;;;;;;;;;;4977971;28;20047;-81
2021/06/30 14:35:49;;;;;;;0.00;0.00;;;;;;;;;;4980128;28;20051;-81
2021/06/30 14:38:15;;;;;;;0.10;0.10;;;;;;;;;;4986629;28;20061;-81
2021/06/30 14:40:43;;;;;;;0.55;0.10;;;;;;;;;;4996258;28;20073;-81
2021/06/30 14:43:09;;;;;;;0.38;0.13;;;;;;;;;;4991944;28;20049;-82
2021/06/30 14:45:36;;;;;;;0.75;0.10;;;;;;;;;;4984407;28;20578;-81
2021/06/30 14:48:03;;;;;;;0.55;0.20;;;;;;;;;;4988449;28;20043;-82
2021/06/30 14:50:35;;;;;;;0.00;0.00;;;;;;;;;;4983931;28;20407;-81
2021/06/30 14:53:01;;;;;;;0.22;0.15;;;;;;;;;;4988138;28;20553;-82
2021/06/30 14:55:31;;;;;;;0.13;0.10;;;;;;;;;;4994225;28;20054;-82
2021/06/30 14:57:58;;;;;;;0.55;0.15;;;;;;;;;;4988377;28;20047;-84